Time;durP1;ratioP1;P1;durP2;ratioP2;P2;SDS_P1;SDS_P2;PMS_P1;PMS_P2;Temp;Humidity;BMP_temperature;BMP_pressure;BME280_temperature;BME280_humidity;BME280_pressure;Samples;Min_cycle;Max_cycle;Signal;HPM_P1;HPM_P2
2024/01/29 06:55:23;;;;;;;;;;;;;;;8.18;70.22;98313.47;4238362;27;10401;-66
2024/01/29 06:57:26;;;;;;;;;;;;;;;8.45;70.05;98299.56;4233989;27;5800;-67
2024/01/29 06:59:29;;;;;;;;;;;;;;;8.68;69.39;98310.59;4247289;27;5605;-67
2024/01/29 07:01:32;;;;;;;;;;;;;;;8.86;68.99;98307.22;4241690;27;5710;-67
2024/01/29 07:03:36;;;;;;;;;;;;;;;9.01;68.97;98308.41;4239733;27;6126;-68
2024/01/29 07:05:39;;;;;;;;;;;;;;;9.12;68.29;98310.84;4242735;27;5622;-68
2024/01/29 07:07:42;;;;;;;;;;;;;;;9.22;68.35;98314.25;4247484;27;5733;-68
2024/01/29 07:09:45;;;;;;;;;;;;;;;9.31;68.15;98318.66;4247131;27;5701;-68
2024/01/29 07:11:49;;;;;;;;;;;;;;;9.38;67.62;98307.50;4246645;27;5651;-68
2024/01/29 07:13:52;;;;;;;;;;;;;;;9.44;67.59;98313.03;4245337;27;5685;-68
2024/01/29 07:15:56;;;;;;;;;;;;;;;9.50;67.58;98308.94;4243010;27;6298;-68
2024/01/29 07:17:59;;;;;;;;;;;;;;;9.55;67.16;98310.16;4247533;27;5828;-68
2024/01/29 07:20:03;;;;;;;;;;;;;;;9.59;66.84;98316.78;4247374;27;5605;-67
2024/01/29 07:22:08;;;;;;;;;;;;;;;9.63;66.93;98315.53;4248473;27;5742;-68
2024/01/29 07:24:11;;;;;;;;;;;;;;;9.68;66.72;98308.97;4247698;27;5602;-67
2024/01/29 07:26:17;;;;;;;;;;;;;;;9.71;66.57;98320.03;4248201;27;5715;-68
2024/01/29 07:28:21;;;;;;;;;;;;;;;9.72;66.75;98329.63;4239341;27;5816;-68
2024/01/29 07:30:24;;;;;;;;;;;;;;;9.74;66.37;98330.34;4245637;27;5736;-68
2024/01/29 07:32:31;;;;;;;;;;;;;;;9.77;66.45;98324.75;4247900;27;6448;-67
2024/01/29 07:34:36;;;;;;;;;;;;;;;9.79;66.04;98321.94;4247264;27;5718;-67
2024/01/29 07:36:39;;;;;;;;;;;;;;;9.81;66.39;98328.72;4247713;27;6397;-68
2024/01/29 07:38:42;;;;;;;;;;;;;;;9.84;66.12;98312.56;4248123;27;5655;-68
2024/01/29 07:40:45;;;;;;;;;;;;;;;9.85;65.77;98318.69;4243544;27;5711;-68
2024/01/29 07:42:49;;;;;;;;;;;;;;;9.87;65.81;98324.66;4247261;27;5788;-68
2024/01/29 07:44:54;;;;;;;;;;;;;;;9.89;65.93;98320.06;4247319;27;5732;-68
2024/01/29 07:46:57;;;;;;;;;;;;;;;9.89;65.52;98318.25;4244724;27;5636;-68
2024/01/29 07:49:03;;;;;;;;;;;;;;;9.91;65.60;98321.56;4240064;27;5644;-68
2024/01/29 07:51:07;;;;;;;;;;;;;;;9.92;65.56;98325.88;4242723;27;5771;-68
2024/01/29 07:53:11;;;;;;;;;;;;;;;9.95;65.66;98321.25;4246352;27;5609;-68
2024/01/29 07:55:14;;;;;;;;;;;;;;;9.96;65.51;98318.44;4207170;28;5395;-68
2024/01/29 07:57:17;;;;;;;;;;;;;;;9.97;65.35;98319.31;4202412;28;7710;-67
2024/01/29 07:59:19;;;;;;;;;;;;;;;9.99;64.95;98325.28;4193409;28;5698;-69
2024/01/29 08:01:24;;;;;;;;;;;;;;;10.00;64.92;98329.56;4206178;28;5884;-68
2024/01/29 08:03:26;;;;;;;;;;;;;;;10.01;65.21;98323.31;4202009;28;6418;-67
2024/01/29 08:05:30;;;;;;;;;;;;;;;10.02;65.06;98327.59;4201134;28;5709;-67
2024/01/29 08:07:33;;;;;;;;;;;;;;;10.04;64.92;98326.47;4202382;28;5705;-67
2024/01/29 08:09:35;;;;;;;;;;;;;;;10.07;64.95;98327.97;4202637;28;5713;-68
2024/01/29 08:11:39;;;;;;;;;;;;;;;10.10;64.93;98335.59;4202431;28;5690;-68
2024/01/29 08:13:42;;;;;;;;;;;;;;;10.09;64.81;98320.72;4212791;28;5769;-68
2024/01/29 08:15:44;;;;;;;;;;;;;;;10.13;64.41;98335.28;4197751;28;5792;-67
2024/01/29 08:17:49;;;;;;;;;;;;;;;10.14;64.78;98336.94;4201870;28;5718;-68
2024/01/29 08:19:52;;;;;;;;;;;;;;;10.15;64.79;98328.03;4202393;28;5784;-68
2024/01/29 08:21:56;;;;;;;;;;;;;;;10.17;64.57;98334.81;4196636;28;5734;-68
2024/01/29 08:24:02;;;;;;;;;;;;;;;10.19;64.43;98334.66;4197213;28;5766;-67
2024/01/29 08:26:04;;;;;;;;;;;;;;;10.20;64.59;98341.63;4202249;28;5698;-67
2024/01/29 08:28:07;;;;;;;;;;;;;;;10.22;64.21;98329.13;4193728;28;5909;-67
2024/01/29 08:30:10;;;;;;;;;;;;;;;10.23;64.24;98322.84;4203764;28;5813;-67
2024/01/29 08:32:13;;;;;;;;;;;;;;;10.25;64.55;98339.38;4202644;28;5686;-67
2024/01/29 08:34:17;;;;;;;;;;;;;;;10.26;64.52;98335.75;4193777;28;5720;-67
2024/01/29 08:36:21;;;;;;;;;;;;;;;10.29;64.33;98334.59;4193940;28;5813;-68
2024/01/29 08:38:25;;;;;;;;;;;;;;;10.29;64.25;98340.72;4201903;28;6957;-67
2024/01/29 08:40:28;;;;;;;;;;;;;;;10.29;64.05;98339.91;4201792;28;5796;-67
2024/01/29 08:42:32;;;;;;;;;;;;;;;10.30;63.97;98342.38;4200028;28;5683;-68
2024/01/29 08:44:38;;;;;;;;;;;;;;;10.30;64.34;98342.38;4191740;28;5837;-68
2024/01/29 08:46:41;;;;;;;;;;;;;;;10.31;63.89;98348.53;4200909;28;5712;-67
2024/01/29 08:48:44;;;;;;;;;;;;;;;10.33;64.14;98349.19;4201997;28;5686;-67
2024/01/29 08:50:49;;;;;;;;;;;;;;;10.35;64.10;98349.88;4193451;28;5690;-68
2024/01/29 08:52:51;;;;;;;;;;;;;;;10.37;63.67;98347.91;4201889;28;5690;-67
2024/01/29 08:54:55;;;;;;;;;;;;;;;10.35;63.48;98345.41;4228100;28;6118;-67
2024/01/29 08:56:58;;;;;;;;;;;;;;;10.38;63.97;98354.84;4226585;28;5718;-68
2024/01/29 08:59:01;;;;;;;;;;;;;;;10.39;63.50;98353.84;4235266;28;5610;-67
2024/01/29 09:01:04;;;;;;;;;;;;;;;10.39;63.70;98354.69;4235181;28;5836;-67
2024/01/29 09:03:09;;;;;;;;;;;;;;;10.40;63.45;98358.97;4230804;28;5714;-68
2024/01/29 09:05:13;;;;;;;;;;;;;;;10.41;63.65;98358.00;4226203;28;5606;-67
2024/01/29 09:07:18;;;;;;;;;;;;;;;10.41;63.65;98360.63;4225230;27;5590;-67
2024/01/29 09:09:21;;;;;;;;;;;;;;;10.43;63.26;98358.69;4232160;27;5587;-67
2024/01/29 09:11:23;;;;;;;;;;;;;;;10.44;63.29;98363.00;4234285;28;5659;-68
2024/01/29 09:13:26;;;;;;;;;;;;;;;10.42;63.28;98364.97;4235572;27;5691;-68
2024/01/29 09:15:29;;;;;;;;;;;;;;;10.42;63.19;98370.25;4234711;28;5660;-68
2024/01/29 09:17:32;;;;;;;;;;;;;;;10.44;63.38;98365.66;4234901;28;5873;-68
2024/01/29 09:19:35;;;;;;;;;;;;;;;10.44;63.28;98360.34;4235227;28;5609;-67
2024/01/29 09:21:38;;;;;;;;;;;;;;;10.43;63.04;98364.00;4235028;28;5693;-68
2024/01/29 09:23:42;;;;;;;;;;;;;;;10.44;63.03;98367.47;4221479;28;5660;-68
2024/01/29 09:25:46;;;;;;;;;;;;;;;10.44;62.99;98365.66;4230768;27;5597;-67
2024/01/29 09:27:48;;;;;;;;;;;;;;;10.44;62.96;98368.28;4234461;28;5735;-68
2024/01/29 09:29:51;;;;;;;;;;;;;;;10.45;63.25;98375.25;4226206;28;5772;-68
2024/01/29 09:31:54;;;;;;;;;;;;;;;10.44;62.92;98370.94;4234495;28;5727;-67
2024/01/29 09:33:58;;;;;;;;;;;;;;;10.45;62.91;98367.31;4228067;28;5632;-68
2024/01/29 09:36:01;;;;;;;;;;;;;;;10.46;63.07;98368.97;4223929;28;5728;-67
2024/01/29 09:38:05;;;;;;;;;;;;;;;10.46;63.01;98368.97;4234248;28;6426;-68
2024/01/29 09:40:13;;;;;;;;;;;;;;;10.48;63.15;98372.28;4234799;28;5663;-68
2024/01/29 09:42:17;;;;;;;;;;;;;;;10.48;63.11;98377.56;4234546;28;5643;-68
2024/01/29 09:44:22;;;;;;;;;;;;;;;10.52;63.05;98377.25;4234295;28;5654;-68
2024/01/29 09:46:27;;;;;;;;;;;;;;;10.52;62.94;98382.53;4234080;27;5956;-68
2024/01/29 09:48:33;;;;;;;;;;;;;;;10.49;62.82;98381.88;4231623;28;5634;-68
2024/01/29 09:50:38;;;;;;;;;;;;;;;10.48;62.77;98384.66;4231917;28;5750;-67
2024/01/29 09:52:43;;;;;;;;;;;;;;;10.46;63.13;98384.81;4220853;28;5098;-68
2024/01/29 09:54:49;;;;;;;;;;;;;;;10.48;62.86;98382.84;4234145;28;5722;-67
2024/01/29 09:56:54;;;;;;;;;;;;;;;10.48;62.76;98382.03;4234742;28;5602;-67
2024/01/29 09:58:58;;;;;;;;;;;;;;;10.48;62.84;98393.44;4223033;28;5732;-66
2024/01/29 10:01:04;;;;;;;;;;;;;;;10.44;62.66;98386.78;4234170;28;5840;-68
2024/01/29 10:03:15;;;;;;;;;;;;;;;10.43;62.90;98393.06;4230314;28;6943;-68
2024/01/29 10:05:18;;;;;;;;;;;;;;;10.43;62.57;98386.97;4230252;28;6641;-68
2024/01/29 10:07:22;;;;;;;;;;;;;;;10.43;62.81;98390.44;4228606;28;5598;-69
2024/01/29 10:09:26;;;;;;;;;;;;;;;10.44;62.91;98393.91;4234011;28;6303;-68
2024/01/29 10:11:29;;;;;;;;;;;;;;;10.44;62.87;98396.53;4234382;28;5602;-68
2024/01/29 10:13:34;;;;;;;;;;;;;;;10.42;62.64;98391.41;4233716;28;5606;-68
2024/01/29 10:15:37;;;;;;;;;;;;;;;10.43;62.46;98394.88;4233715;28;5870;-67
2024/01/29 10:17:41;;;;;;;;;;;;;;;10.42;62.76;98393.22;4233750;28;5635;-68
2024/01/29 10:19:45;;;;;;;;;;;;;;;10.43;62.62;98393.06;4221553;28;5678;-68
2024/01/29 10:21:48;;;;;;;;;;;;;;;10.43;62.68;98390.44;4229623;28;5594;-67
2024/01/29 10:23:56;;;;;;;;;;;;;;;10.45;62.48;98392.91;4230685;28;5732;-67
2024/01/29 10:26:00;;;;;;;;;;;;;;;10.47;62.40;98390.94;4231195;28;6129;-68
2024/01/29 10:28:06;;;;;;;;;;;;;;;10.47;62.35;98388.28;4226564;28;5756;-67
2024/01/29 10:30:13;;;;;;;;;;;;;;;10.45;62.50;98396.38;4224359;28;5757;-67
2024/01/29 10:32:16;;;;;;;;;;;;;;;10.48;62.46;98388.13;4233683;28;5664;-68
2024/01/29 10:34:21;;;;;;;;;;;;;;;10.49;62.50;98396.91;4225123;28;6366;-67
2024/01/29 10:36:25;;;;;;;;;;;;;;;10.52;62.50;98390.47;4225447;28;5711;-67
2024/01/29 10:38:29;;;;;;;;;;;;;;;10.53;62.42;98392.97;4224926;28;5703;-68
2024/01/29 10:40:33;;;;;;;;;;;;;;;10.54;62.60;98391.16;4233734;28;5655;-68
2024/01/29 10:42:39;;;;;;;;;;;;;;;10.55;62.51;98392.81;4233598;28;6614;-68
2024/01/29 10:44:43;;;;;;;;;;;;;;;10.54;62.26;98380.59;4226659;28;5795;-68
2024/01/29 10:46:48;;;;;;;;;;;;;;;10.57;62.51;98385.56;4233772;28;5635;-68
2024/01/29 10:48:53;;;;;;;;;;;;;;;10.57;62.27;98382.91;4233429;28;5644;-68
2024/01/29 10:50:57;;;;;;;;;;;;;;;10.58;62.18;98376.66;4233684;28;5793;-68
2024/01/29 10:53:00;;;;;;;;;;;;;;;10.58;62.56;98382.75;4233818;28;5664;-67
2024/01/29 10:55:10;;;;;;;;;;;;;;;10.58;62.17;98382.75;4233610;28;5639;-68
2024/01/29 10:57:15;;;;;;;;;;;;;;;10.58;62.09;98376.66;4233620;28;5664;-68
2024/01/29 10:59:20;;;;;;;;;;;;;;;10.57;62.24;98365.25;4224966;28;5644;-67
2024/01/29 11:01:23;;;;;;;;;;;;;;;10.59;62.49;98363.25;4224974;28;5681;-67
2024/01/29 11:03:29;;;;;;;;;;;;;;;10.60;62.32;98361.44;4233455;28;5639;-67
2024/01/29 11:05:33;;;;;;;;;;;;;;;10.61;62.18;98361.28;4233550;28;5394;-67
2024/01/29 11:07:38;;;;;;;;;;;;;;;10.62;62.22;98359.47;4233348;28;7383;-67
2024/01/29 11:09:49;;;;;;;;;;;;;;;10.65;62.35;98362.66;4233673;28;5652;-68
2024/01/29 11:11:53;;;;;;;;;;;;;;;10.66;62.46;98355.56;4234027;28;5845;-67
2024/01/29 11:13:56;;;;;;;;;;;;;;;10.67;62.27;98365.16;4229602;28;5657;-68
2024/01/29 11:16:00;;;;;;;;;;;;;;;10.65;62.35;98361.84;4230638;28;5595;-67
2024/01/29 11:18:03;;;;;;;;;;;;;;;10.65;62.26;98364.47;4232931;28;6234;-67
2024/01/29 11:20:11;;;;;;;;;;;;;;;10.64;62.12;98352.22;4233646;28;6279;-68
2024/01/29 11:22:15;;;;;;;;;;;;;;;10.66;62.48;98358.19;4233445;28;5672;-69
2024/01/29 11:24:21;;;;;;;;;;;;;;;10.68;62.34;98354.41;4233612;28;5648;-68
2024/01/29 11:26:28;;;;;;;;;;;;;;;10.70;62.35;98349.78;4224824;28;5816;-67
2024/01/29 11:28:34;;;;;;;;;;;;;;;10.74;62.22;98342.34;4233470;28;5606;-68
2024/01/29 11:30:39;;;;;;;;;;;;;;;10.78;62.01;98349.00;4231585;28;5927;-69
2024/01/29 11:32:42;;;;;;;;;;;;;;;10.81;62.07;98350.50;4236544;28;5689;-66
2024/01/29 11:34:45;;;;;;;;;;;;;;;10.83;62.26;98337.94;4236449;28;6346;-67
2024/01/29 11:36:54;;;;;;;;;;;;;;;10.84;62.05;98344.91;4218393;28;5640;-67
2024/01/29 11:39:03;;;;;;;;;;;;;;;10.85;62.01;98341.25;4234219;28;5727;-68
2024/01/29 11:41:06;;;;;;;;;;;;;;;10.84;62.17;98336.97;4234676;27;5871;-68
2024/01/29 11:43:14;;;;;;;;;;;;;;;10.87;61.94;98337.47;4214099;28;5647;-67
2024/01/29 11:45:19;;;;;;;;;;;;;;;10.89;62.17;98338.16;4227645;28;6421;-67
2024/01/29 11:47:24;;;;;;;;;;;;;;;10.89;61.98;98338.16;4228652;28;5640;-67
2024/01/29 11:49:27;;;;;;;;;;;;;;;10.92;61.91;98331.72;4236344;28;6280;-68
2024/01/29 11:51:32;;;;;;;;;;;;;;;10.93;61.85;98333.38;4236493;28;5729;-68
2024/01/29 11:53:37;;;;;;;;;;;;;;;10.94;61.82;98327.91;4235942;28;5698;-68
2024/01/29 11:55:40;;;;;;;;;;;;;;;10.95;62.04;98331.41;4236342;28;5599;-67
2024/01/29 11:57:45;;;;;;;;;;;;;;;10.95;62.03;98336.69;4236202;28;5597;-68
2024/01/29 11:59:48;;;;;;;;;;;;;;;10.95;61.88;98332.22;4235964;28;5598;-68
2024/01/29 12:01:53;;;;;;;;;;;;;;;10.94;62.00;98330.56;4209619;28;5605;-68
2024/01/29 12:03:56;;;;;;;;;;;;;;;10.95;62.04;98332.22;4236407;28;5597;-69
2024/01/29 12:06:00;;;;;;;;;;;;;;;10.94;61.86;98327.09;4235954;28;5688;-67
2024/01/29 12:08:03;;;;;;;;;;;;;;;10.95;61.71;98321.63;4235984;28;5638;-67
2024/01/29 12:10:09;;;;;;;;;;;;;;;10.93;61.97;98318.31;4235877;28;5761;-67
2024/01/29 12:12:13;;;;;;;;;;;;;;;10.92;61.81;98311.38;4235990;28;5636;-67
2024/01/29 12:14:16;;;;;;;;;;;;;;;10.95;61.98;98308.41;4235655;28;5601;-68
2024/01/29 12:16:20;;;;;;;;;;;;;;;10.98;61.52;98316.03;4227550;28;5668;-68
2024/01/29 12:18:25;;;;;;;;;;;;;;;10.99;61.82;98309.78;4235864;28;5653;-67
2024/01/29 12:20:29;;;;;;;;;;;;;;;11.01;61.28;98305.16;4235724;28;5602;-67
2024/01/29 12:22:32;;;;;;;;;;;;;;;11.01;61.71;98307.78;4235849;28;5609;-67
2024/01/29 12:24:35;;;;;;;;;;;;;;;11.03;61.60;98307.63;4236021;28;5809;-68
2024/01/29 12:26:40;;;;;;;;;;;;;;;11.02;61.50;98304.16;4234014;28;5669;-68
2024/01/29 12:28:43;;;;;;;;;;;;;;;11.02;60.92;98300.69;4233040;27;5095;-69
2024/01/29 12:30:53;;;;;;;;;;;;;;;10.98;61.28;98289.56;4222950;27;7721;-79
2024/01/29 12:32:57;;;;;;;;;;;;;;;10.97;60.64;98287.06;4225460;27;6311;-79
2024/01/29 12:35:00;;;;;;;;;;;;;;;10.89;60.25;98287.88;4235005;28;5773;-72
2024/01/29 12:37:04;;;;;;;;;;;;;;;10.85;60.55;98285.69;4226244;27;5692;-81
2024/01/29 12:39:11;;;;;;;;;;;;;;;10.82;60.86;98283.38;4226496;27;5760;-65
2024/01/29 12:41:14;;;;;;;;;;;;;;;10.85;61.30;98288.34;4233738;27;6388;-64
2024/01/29 12:43:27;;;;;;;;;;;;;;;10.88;60.77;98280.94;4225319;28;5764;-74
2024/01/29 12:45:30;;;;;;;;;;;;;;;10.88;60.65;98283.59;4228210;28;5602;-63
2024/01/29 12:47:33;;;;;;;;;;;;;;;10.90;60.99;98276.31;4232142;27;5713;-64
2024/01/29 12:49:36;;;;;;;;;;;;;;;10.91;60.71;98275.31;4230300;28;6402;-65
2024/01/29 12:51:41;;;;;;;;;;;;;;;10.93;60.83;98278.63;4225928;28;5692;-64
2024/01/29 12:53:55;;;;;;;;;;;;;;;10.96;60.71;98274.84;4233076;28;5732;-65
2024/01/29 12:55:59;;;;;;;;;;;;;;;10.98;61.01;98273.69;4231548;28;5684;-64
2024/01/29 12:58:02;;;;;;;;;;;;;;;11.00;60.97;98270.91;4216513;28;5088;-64
2024/01/29 13:00:09;;;;;;;;;;;;;;;11.02;60.81;98269.75;4227286;28;5685;-64
2024/01/29 13:02:12;;;;;;;;;;;;;;;11.02;60.36;98275.03;4225846;28;5597;-63
2024/01/29 13:04:16;;;;;;;;;;;;;;;11.02;60.37;98267.09;4232199;28;5594;-63
2024/01/29 13:06:20;;;;;;;;;;;;;;;11.04;60.46;98272.22;4224996;28;5663;-63
2024/01/29 13:08:25;;;;;;;;;;;;;;;11.05;60.51;98268.59;4226236;28;5778;-64
2024/01/29 13:10:30;;;;;;;;;;;;;;;11.04;60.18;98264.28;4224594;28;5657;-64
2024/01/29 13:12:33;;;;;;;;;;;;;;;11.04;60.13;98264.28;4223676;28;5703;-64
2024/01/29 13:14:37;;;;;;;;;;;;;;;11.04;60.22;98257.19;4224911;28;5697;-64
2024/01/29 13:16:42;;;;;;;;;;;;;;;11.05;60.20;98256.19;4223355;28;5643;-65
2024/01/29 13:18:45;;;;;;;;;;;;;;;11.07;60.34;98262.16;4225487;28;5761;-65
2024/01/29 13:20:48;;;;;;;;;;;;;;;11.11;60.23;98252.09;4225576;28;5659;-64
2024/01/29 13:22:52;;;;;;;;;;;;;;;11.13;59.96;98254.56;4217899;28;5871;-64
2024/01/29 13:24:56;;;;;;;;;;;;;;;11.15;59.97;98252.59;4226549;28;5876;-64
2024/01/29 13:27:00;;;;;;;;;;;;;;;11.16;59.84;98251.59;4223591;28;5696;-64
2024/01/29 13:29:02;;;;;;;;;;;;;;;11.18;59.73;98246.97;4231574;28;5776;-64
2024/01/29 13:31:06;;;;;;;;;;;;;;;11.19;59.82;98248.63;4222251;28;5684;-64
2024/01/29 13:33:10;;;;;;;;;;;;;;;11.21;59.88;98243.97;4227981;28;6494;-64
2024/01/29 13:35:13;;;;;;;;;;;;;;;11.22;59.76;98249.16;4229501;28;6764;-64
2024/01/29 13:37:16;;;;;;;;;;;;;;;11.24;59.54;98236.56;4226239;28;5669;-64
2024/01/29 13:39:20;;;;;;;;;;;;;;;11.26;59.20;98237.22;4226344;28;5696;-63
2024/01/29 13:41:23;;;;;;;;;;;;;;;11.27;59.44;98240.69;4233622;28;5781;-64
2024/01/29 13:43:26;;;;;;;;;;;;;;;11.27;59.31;98235.41;4226657;27;5605;-64
2024/01/29 13:45:29;;;;;;;;;;;;;;;11.29;59.36;98238.72;4230143;28;5610;-64
2024/01/29 13:47:33;;;;;;;;;;;;;;;11.29;58.92;98238.72;4233839;28;5670;-68
2024/01/29 13:49:37;;;;;;;;;;;;;;;11.30;59.24;98237.72;4232610;28;5594;-69
2024/01/29 13:51:41;;;;;;;;;;;;;;;11.31;58.73;98240.19;4231569;28;5636;-69
2024/01/29 13:53:44;;;;;;;;;;;;;;;11.31;58.45;98229.63;4233290;27;5109;-69
2024/01/29 13:55:46;;;;;;;;;;;;;;;11.31;58.49;98228.78;4230414;28;5609;-69
2024/01/29 13:57:49;;;;;;;;;;;;;;;11.33;58.69;98234.78;4234195;28;5606;-69
2024/01/29 13:59:53;;;;;;;;;;;;;;;11.32;58.62;98227.78;4227170;28;5077;-69
2024/01/29 14:01:56;;;;;;;;;;;;;;;11.34;58.53;98229.31;4230901;28;5879;-69
2024/01/29 14:04:00;;;;;;;;;;;;;;;11.35;58.51;98223.03;4233925;28;5676;-69
2024/01/29 14:06:05;;;;;;;;;;;;;;;11.37;58.58;98220.22;4234143;28;5657;-68
2024/01/29 14:08:08;;;;;;;;;;;;;;;11.38;58.67;98227.16;4234381;28;5598;-69
2024/01/29 14:10:15;;;;;;;;;;;;;;;11.39;58.42;98223.50;4234084;28;5679;-69
2024/01/29 14:12:20;;;;;;;;;;;;;;;11.40;58.27;98221.69;4225702;28;5606;-69
2024/01/29 14:14:23;;;;;;;;;;;;;;;11.41;58.65;98226.00;4233731;28;5717;-68
2024/01/29 14:16:36;;;;;;;;;;;;;;;11.40;58.41;98224.34;4234068;28;5613;-69
2024/01/29 14:18:39;;;;;;;;;;;;;;;11.42;58.55;98220.53;4234093;28;5648;-69
2024/01/29 14:20:43;;;;;;;;;;;;;;;11.42;58.63;98223.19;4233745;28;5719;-69
2024/01/29 14:22:51;;;;;;;;;;;;;;;11.44;58.51;98220.38;4221477;28;5704;-68
2024/01/29 14:24:54;;;;;;;;;;;;;;;11.44;58.18;98215.94;4225525;28;5704;-68
2024/01/29 14:26:57;;;;;;;;;;;;;;;11.43;57.96;98224.00;4222639;28;6291;-68
2024/01/29 14:29:02;;;;;;;;;;;;;;;11.42;57.91;98217.88;4225631;28;5615;-69
2024/01/29 14:31:05;;;;;;;;;;;;;;;11.43;58.29;98219.53;4233573;28;5613;-68
2024/01/29 14:33:08;;;;;;;;;;;;;;;11.44;58.22;98215.06;4233511;28;5771;-68
2024/01/29 14:35:12;;;;;;;;;;;;;;;11.44;57.98;98221.22;4231090;28;5779;-69
2024/01/29 14:37:15;;;;;;;;;;;;;;;11.45;57.93;98217.56;4234062;28;5692;-69
2024/01/29 14:39:20;;;;;;;;;;;;;;;11.45;57.52;98220.22;4225561;28;5594;-68
2024/01/29 14:41:24;;;;;;;;;;;;;;;11.44;57.39;98218.56;4226488;28;5629;-69
2024/01/29 14:43:28;;;;;;;;;;;;;;;11.45;57.43;98224.69;4233867;28;5605;-68
2024/01/29 14:45:32;;;;;;;;;;;;;;;11.45;57.32;98217.56;4233709;28;5230;-68
2024/01/29 14:47:35;;;;;;;;;;;;;;;11.46;57.32;98213.09;4225492;28;7715;-69
2024/01/29 14:49:38;;;;;;;;;;;;;;;11.46;57.38;98215.75;4233620;27;5720;-69
2024/01/29 14:51:41;;;;;;;;;;;;;;;11.46;57.42;98219.22;4233606;28;5639;-69
2024/01/29 14:53:43;;;;;;;;;;;;;;;11.46;57.33;98216.59;4233223;28;5797;-69
2024/01/29 14:55:50;;;;;;;;;;;;;;;11.47;57.04;98212.94;4225313;28;5685;-68
2024/01/29 14:57:51;;;;;;;;;;;;;;;11.48;57.02;98213.75;4233939;28;5602;-69
2024/01/29 14:59:54;;;;;;;;;;;;;;;11.49;57.18;98220.72;4227937;28;5655;-69
2024/01/29 15:01:59;;;;;;;;;;;;;;;11.49;57.01;98224.19;4225480;28;5816;-69
2024/01/29 15:04:03;;;;;;;;;;;;;;;11.49;57.28;98218.06;4218947;28;5786;-69
2024/01/29 15:06:10;;;;;;;;;;;;;;;11.49;57.22;98218.91;4234949;28;5798;-69
2024/01/29 15:08:13;;;;;;;;;;;;;;;11.50;57.30;98215.25;4237224;28;5636;-68
2024/01/29 15:10:17;;;;;;;;;;;;;;;11.49;57.22;98218.91;4236753;28;5652;-68
2024/01/29 15:12:22;;;;;;;;;;;;;;;11.50;57.19;98214.44;4225054;28;5733;-68
2024/01/29 15:14:26;;;;;;;;;;;;;;;11.49;57.19;98213.59;4229627;28;5722;-68
2024/01/29 15:16:29;;;;;;;;;;;;;;;11.50;57.33;98215.25;4236257;28;5598;-68
2024/01/29 15:18:33;;;;;;;;;;;;;;;11.51;57.40;98218.72;4236550;28;5825;-69
2024/01/29 15:20:37;;;;;;;;;;;;;;;11.50;57.59;98220.53;4233526;28;5701;-69
2024/01/29 15:22:40;;;;;;;;;;;;;;;11.50;57.68;98214.44;4231799;28;5590;-69
2024/01/29 15:24:45;;;;;;;;;;;;;;;11.48;57.38;98217.25;4232394;28;5594;-69
2024/01/29 15:26:49;;;;;;;;;;;;;;;11.49;57.28;98218.91;4236012;28;5758;-69
2024/01/29 15:28:54;;;;;;;;;;;;;;;11.48;57.39;98211.94;4236117;28;7785;-70
2024/01/29 15:30:57;;;;;;;;;;;;;;;11.48;57.40;98219.88;4225776;28;5594;-75
2024/01/29 15:33:00;;;;;;;;;;;;;;;11.48;57.38;98217.25;4236723;28;5642;-76
2024/01/29 15:35:04;;;;;;;;;;;;;;;11.48;57.44;98214.59;4236555;28;5667;-77
2024/01/29 15:37:08;;;;;;;;;;;;;;;11.48;57.17;98216.41;4229392;28;5616;-76
2024/01/29 15:39:11;;;;;;;;;;;;;;;11.48;57.30;98208.47;4235611;28;5649;-76
2024/01/29 15:41:17;;;;;;;;;;;;;;;11.46;57.20;98218.41;4235329;28;5689;-75
2024/01/29 15:43:20;;;;;;;;;;;;;;;11.46;57.26;98208.63;4208632;28;5611;-76
2024/01/29 15:45:25;;;;;;;;;;;;;;;11.47;57.12;98209.47;4229811;28;5710;-75
2024/01/29 15:47:28;;;;;;;;;;;;;;;11.45;56.85;98212.28;4227347;28;5770;-76
2024/01/29 15:49:34;;;;;;;;;;;;;;;11.45;56.71;98217.56;4229211;28;5804;-76
2024/01/29 15:51:37;;;;;;;;;;;;;;;11.43;56.75;98213.41;4236425;28;5704;-77
2024/01/29 15:53:41;;;;;;;;;;;;;;;11.42;56.63;98217.88;4228413;28;5610;-76
2024/01/29 15:55:44;;;;;;;;;;;;;;;11.40;56.68;98213.75;4235399;28;5669;-77
2024/01/29 15:57:47;;;;;;;;;;;;;;;11.42;56.89;98212.59;4236173;28;5686;-78
2024/01/29 15:59:50;;;;;;;;;;;;;;;11.43;56.63;98211.59;4236342;28;5250;-76
2024/01/29 16:02:04;;;;;;;;;;;;;;;11.43;56.79;98222.19;4232952;28;7678;-76
2024/01/29 16:04:09;;;;;;;;;;;;;;;11.44;56.72;98218.56;4226061;28;5708;-76
2024/01/29 16:06:13;;;;;;;;;;;;;;;11.43;56.63;98224.84;4234303;28;5800;-76
2024/01/29 16:08:16;;;;;;;;;;;;;;;11.43;56.60;98222.19;4228958;28;5673;-75
2024/01/29 16:10:19;;;;;;;;;;;;;;;11.44;56.92;98220.38;4233167;28;5582;-76
2024/01/29 16:12:22;;;;;;;;;;;;;;;11.43;56.63;98221.34;4225694;28;5691;-76
2024/01/29 16:14:26;;;;;;;;;;;;;;;11.44;57.00;98231.81;4232268;28;5689;-75
2024/01/29 16:16:29;;;;;;;;;;;;;;;11.43;57.11;98222.19;4231787;28;5693;-76
2024/01/29 16:18:33;;;;;;;;;;;;;;;11.43;57.18;98227.47;4210751;28;5612;-75
2024/01/29 16:20:37;;;;;;;;;;;;;;;11.43;56.88;98224.84;4233888;28;5872;-75
2024/01/29 16:22:41;;;;;;;;;;;;;;;11.43;57.31;98229.31;4231687;28;5652;-76
2024/01/29 16:24:44;;;;;;;;;;;;;;;11.41;57.19;98226.00;4235300;28;5601;-73
2024/01/29 16:26:48;;;;;;;;;;;;;;;11.39;57.34;98226.16;4234823;28;5644;-74
2024/01/29 16:28:50;;;;;;;;;;;;;;;11.40;57.46;98234.94;4235180;28;5606;-72
2024/01/29 16:30:54;;;;;;;;;;;;;;;11.38;57.16;98235.94;4234720;28;5614;-73
2024/01/29 16:32:57;;;;;;;;;;;;;;;11.37;57.31;98236.91;4231779;28;5786;-73
2024/01/29 16:35:01;;;;;;;;;;;;;;;11.37;57.31;98238.75;4233423;28;7028;-72
2024/01/29 16:37:04;;;;;;;;;;;;;;;11.37;57.47;98236.91;4231704;28;5631;-73
2024/01/29 16:39:07;;;;;;;;;;;;;;;11.35;57.38;98238.09;4235484;28;5689;-73
2024/01/29 16:41:20;;;;;;;;;;;;;;;11.34;57.25;98231.97;4235525;28;5605;-73
2024/01/29 16:43:23;;;;;;;;;;;;;;;11.33;57.49;98234.78;4228084;28;5701;-73
2024/01/29 16:45:26;;;;;;;;;;;;;;;11.33;57.47;98237.41;4232722;28;5606;-73
2024/01/29 16:47:29;;;;;;;;;;;;;;;11.30;57.67;98233.25;4235223;28;5609;-73
2024/01/29 16:49:32;;;;;;;;;;;;;;;11.29;57.76;98236.06;4235398;28;5624;-72
2024/01/29 16:51:36;;;;;;;;;;;;;;;11.30;57.96;98245.66;4229303;27;5858;-72
2024/01/29 16:53:39;;;;;;;;;;;;;;;11.28;57.68;98245.00;4234186;28;5753;-73
2024/01/29 16:55:42;;;;;;;;;;;;;;;11.28;57.65;98247.66;4234028;28;5678;-72
2024/01/29 16:57:45;;;;;;;;;;;;;;;11.26;58.04;98241.69;4235056;28;6430;-73
2024/01/29 16:59:48;;;;;;;;;;;;;;;11.25;57.77;98242.69;4235421;28;5697;-73
2024/01/29 17:01:51;;;;;;;;;;;;;;;11.24;57.99;98251.63;4234581;28;5740;-73
2024/01/29 17:03:54;;;;;;;;;;;;;;;11.23;57.82;98244.69;4234991;28;5692;-73
2024/01/29 17:05:58;;;;;;;;;;;;;;;11.22;58.30;98249.16;4226597;28;5640;-74
2024/01/29 17:08:06;;;;;;;;;;;;;;;11.21;57.96;98251.91;4220621;28;5741;-73
2024/01/29 17:10:09;;;;;;;;;;;;;;;11.19;58.26;98251.25;4233100;28;5591;-74
2024/01/29 17:12:13;;;;;;;;;;;;;;;11.19;58.08;98257.38;4235217;28;5615;-74
2024/01/29 17:14:16;;;;;;;;;;;;;;;11.19;58.12;98253.91;4226739;28;5866;-76
2024/01/29 17:16:19;;;;;;;;;;;;;;;11.16;58.41;98249.78;4226367;28;5598;-73
2024/01/29 17:18:22;;;;;;;;;;;;;;;11.17;58.54;98250.59;4234546;28;5780;-71
2024/01/29 17:20:25;;;;;;;;;;;;;;;11.15;58.17;98245.47;4234873;28;5606;-72
2024/01/29 17:22:28;;;;;;;;;;;;;;;11.14;58.43;98256.22;4225100;28;5853;-73
2024/01/29 17:24:33;;;;;;;;;;;;;;;11.14;58.44;98248.28;4228169;28;5651;-71
2024/01/29 17:26:36;;;;;;;;;;;;;;;11.12;58.35;98250.28;4226280;27;5682;-73
2024/01/29 17:28:38;;;;;;;;;;;;;;;11.11;58.33;98249.44;4231117;28;5886;-71
2024/01/29 17:30:41;;;;;;;;;;;;;;;11.11;58.23;98253.91;4229288;28;7121;-75
2024/01/29 17:32:45;;;;;;;;;;;;;;;11.09;58.59;98248.75;4226305;28;5602;-72
2024/01/29 17:34:49;;;;;;;;;;;;;;;11.08;58.44;98252.38;4234568;28;5716;-72
2024/01/29 17:36:52;;;;;;;;;;;;;;;11.08;58.26;98252.38;4235043;28;5617;-71
2024/01/29 17:38:56;;;;;;;;;;;;;;;11.07;58.21;98251.56;4226664;28;5848;-72
2024/01/29 17:41:01;;;;;;;;;;;;;;;11.06;58.48;98244.63;4234675;28;5689;-73
2024/01/29 17:43:05;;;;;;;;;;;;;;;11.07;58.23;98256.03;4226413;28;5621;-74
2024/01/29 17:45:08;;;;;;;;;;;;;;;11.06;58.28;98252.56;4234040;28;5711;-73
2024/01/29 17:47:12;;;;;;;;;;;;;;;11.07;58.24;98250.72;4234530;28;5857;-73
2024/01/29 17:49:15;;;;;;;;;;;;;;;11.07;57.72;98256.84;4234412;28;5672;-73